sensor_id;sensor_type;location;lat;lon;timestamp;pressure;altitude;pressure_sealevel;temperature;humidity
72096;BME280;59968;51.084;16.748;2024-02-28T00:02:09;100262.77;;;9.12;79.56
72096;BME280;59968;51.084;16.748;2024-02-28T00:04:40;100262.94;;;9.13;79.60
72096;BME280;59968;51.084;16.748;2024-02-28T00:07:09;100266.96;;;9.13;79.62
72096;BME280;59968;51.084;16.748;2024-02-28T00:09:38;100262.77;;;9.12;79.73
72096;BME280;59968;51.084;16.748;2024-02-28T00:12:07;100264.33;;;9.13;79.72
72096;BME280;59968;51.084;16.748;2024-02-28T00:14:36;100267.80;;;9.13;79.81
72096;BME280;59968;51.084;16.748;2024-02-28T00:17:05;100270.17;;;9.15;79.92
72096;BME280;59968;51.084;16.748;2024-02-28T00:19:34;100267.52;;;9.17;79.84
72096;BME280;59968;51.084;16.748;2024-02-28T00:22:02;100267.05;;;9.20;79.77
72096;BME280;59968;51.084;16.748;2024-02-28T00:24:31;100263.54;;;9.19;79.69
72096;BME280;59968;51.084;16.748;2024-02-28T00:27:00;100265.68;;;9.12;80.02
72096;BME280;59968;51.084;16.748;2024-02-28T00:29:29;100275.38;;;9.02;80.41
72096;BME280;59968;51.084;16.748;2024-02-28T00:31:57;100268.67;;;8.91;80.50
72096;BME280;59968;51.084;16.748;2024-02-28T00:34:26;100277.02;;;8.96;80.68
72096;BME280;59968;51.084;16.748;2024-02-28T00:36:54;100274.16;;;9.07;80.28
72096;BME280;59968;51.084;16.748;2024-02-28T00:39:24;100274.38;;;9.05;80.31
72096;BME280;59968;51.084;16.748;2024-02-28T00:41:56;100279.47;;;8.92;80.78
72096;BME280;59968;51.084;16.748;2024-02-28T00:44:25;100280.02;;;8.92;81.13
72096;BME280;59968;51.084;16.748;2024-02-28T00:46:54;100278.84;;;8.93;81.23
72096;BME280;59968;51.084;16.748;2024-02-28T00:49:24;100266.95;;;8.85;81.16
72096;BME280;59968;51.084;16.748;2024-02-28T00:51:53;100276.71;;;8.95;81.27
72096;BME280;59968;51.084;16.748;2024-02-28T00:54:22;100281.64;;;8.91;81.29
72096;BME280;59968;51.084;16.748;2024-02-28T00:56:52;100282.27;;;8.87;81.48
72096;BME280;59968;51.084;16.748;2024-02-28T00:59:21;100278.33;;;8.85;81.53
72096;BME280;59968;51.084;16.748;2024-02-28T01:01:50;100279.30;;;8.86;81.54
72096;BME280;59968;51.084;16.748;2024-02-28T01:04:19;100277.84;;;8.84;81.66
72096;BME280;59968;51.084;16.748;2024-02-28T01:06:48;100276.55;;;8.92;81.39
72096;BME280;59968;51.084;16.748;2024-02-28T01:09:19;100277.57;;;9.02;80.89
72096;BME280;59968;51.084;16.748;2024-02-28T01:11:48;100273.87;;;9.01;80.80
72096;BME280;59968;51.084;16.748;2024-02-28T01:14:17;100280.27;;;9.01;80.84
72096;BME280;59968;51.084;16.748;2024-02-28T01:16:45;100280.65;;;8.98;81.05
72096;BME280;59968;51.084;16.748;2024-02-28T01:19:15;100285.83;;;9.01;81.26
72096;BME280;59968;51.084;16.748;2024-02-28T01:21:44;100273.54;;;8.98;81.09
72096;BME280;59968;51.084;16.748;2024-02-28T01:24:13;100278.21;;;9.00;81.13
72096;BME280;59968;51.084;16.748;2024-02-28T01:26:42;100255.43;;;8.82;81.23
72096;BME280;59968;51.084;16.748;2024-02-28T01:29:11;100274.05;;;8.94;81.45
72096;BME280;59968;51.084;16.748;2024-02-28T01:31:40;100272.13;;;8.91;81.55
72096;BME280;59968;51.084;16.748;2024-02-28T01:34:09;100271.73;;;8.90;81.67
72096;BME280;59968;51.084;16.748;2024-02-28T01:36:38;100268.94;;;8.88;81.77
72096;BME280;59968;51.084;16.748;2024-02-28T01:39:06;100267.94;;;8.84;82.05
72096;BME280;59968;51.084;16.748;2024-02-28T01:41:35;100270.38;;;8.88;81.90
72096;BME280;59968;51.084;16.748;2024-02-28T01:44:04;100270.73;;;8.88;82.17
72096;BME280;59968;51.084;16.748;2024-02-28T01:46:33;100272.95;;;8.87;82.30
72096;BME280;59968;51.084;16.748;2024-02-28T01:49:02;100273.81;;;8.89;82.25
72096;BME280;59968;51.084;16.748;2024-02-28T01:51:31;100272.74;;;8.92;82.27
72096;BME280;59968;51.084;16.748;2024-02-28T01:54:00;100269.03;;;8.92;82.17
72096;BME280;59968;51.084;16.748;2024-02-28T01:56:29;100268.42;;;8.90;82.28
72096;BME280;59968;51.084;16.748;2024-02-28T01:58:58;100266.28;;;8.91;82.32
72096;BME280;59968;51.084;16.748;2024-02-28T02:01:28;100261.10;;;8.93;82.48
72096;BME280;59968;51.084;16.748;2024-02-28T02:03:59;100264.80;;;8.90;82.55
72096;BME280;59968;51.084;16.748;2024-02-28T02:06:28;100265.98;;;8.92;82.67
72096;BME280;59968;51.084;16.748;2024-02-28T02:09:01;100258.44;;;8.90;82.63
72096;BME280;59968;51.084;16.748;2024-02-28T02:11:31;100258.61;;;8.92;82.63
72096;BME280;59968;51.084;16.748;2024-02-28T02:14:00;100260.80;;;8.92;82.69
72096;BME280;59968;51.084;16.748;2024-02-28T02:16:28;100261.58;;;8.96;82.63
72096;BME280;59968;51.084;16.748;2024-02-28T02:18:58;100262.38;;;8.96;82.60
72096;BME280;59968;51.084;16.748;2024-02-28T02:21:31;100260.91;;;8.98;82.72
72096;BME280;59968;51.084;16.748;2024-02-28T02:24:03;100254.39;;;9.01;82.52
72096;BME280;59968;51.084;16.748;2024-02-28T02:26:34;100254.83;;;9.00;82.42
72096;BME280;59968;51.084;16.748;2024-02-28T02:29:03;100252.26;;;8.96;82.50
72096;BME280;59968;51.084;16.748;2024-02-28T02:31:31;100252.38;;;8.96;82.60
72096;BME280;59968;51.084;16.748;2024-02-28T02:34:00;100252.15;;;8.95;82.57
72096;BME280;59968;51.084;16.748;2024-02-28T02:36:29;100251.71;;;8.95;82.66
72096;BME280;59968;51.084;16.748;2024-02-28T02:38:57;100253.72;;;8.98;82.47
72096;BME280;59968;51.084;16.748;2024-02-28T02:41:29;100255.04;;;8.99;82.54
72096;BME280;59968;51.084;16.748;2024-02-28T02:43:58;100256.64;;;9.00;82.58
72096;BME280;59968;51.084;16.748;2024-02-28T02:46:26;100256.62;;;9.01;82.44
72096;BME280;59968;51.084;16.748;2024-02-28T02:48:55;100252.70;;;8.99;82.46
72096;BME280;59968;51.084;16.748;2024-02-28T02:51:23;100250.54;;;8.96;82.62
72096;BME280;59968;51.084;16.748;2024-02-28T02:53:54;100252.21;;;8.92;82.69
72096;BME280;59968;51.084;16.748;2024-02-28T02:56:22;100258.52;;;8.91;82.79
72096;BME280;59968;51.084;16.748;2024-02-28T02:58:51;100261.34;;;8.91;82.77
72096;BME280;59968;51.084;16.748;2024-02-28T03:01:20;100258.71;;;8.91;82.79
72096;BME280;59968;51.084;16.748;2024-02-28T03:03:52;100256.57;;;8.89;82.91
72096;BME280;59968;51.084;16.748;2024-02-28T03:06:21;100248.92;;;8.85;83.03
72096;BME280;59968;51.084;16.748;2024-02-28T03:08:52;100254.36;;;8.84;83.00
72096;BME280;59968;51.084;16.748;2024-02-28T03:11:21;100263.85;;;8.88;83.00
72096;BME280;59968;51.084;16.748;2024-02-28T03:13:50;100266.65;;;8.89;83.05
72096;BME280;59968;51.084;16.748;2024-02-28T03:16:18;100266.28;;;8.85;83.17
72096;BME280;59968;51.084;16.748;2024-02-28T03:18:47;100269.45;;;8.87;83.20
72096;BME280;59968;51.084;16.748;2024-02-28T03:21:15;100273.25;;;8.89;83.17
72096;BME280;59968;51.084;16.748;2024-02-28T03:23:45;100272.27;;;8.93;83.05
72096;BME280;59968;51.084;16.748;2024-02-28T03:26:14;100271.04;;;8.96;83.02
72096;BME280;59968;51.084;16.748;2024-02-28T03:28:42;100270.26;;;9.00;83.12
72096;BME280;59968;51.084;16.748;2024-02-28T03:31:13;100271.58;;;9.03;83.04
72096;BME280;59968;51.084;16.748;2024-02-28T03:33:42;100269.52;;;9.07;83.14
72096;BME280;59968;51.084;16.748;2024-02-28T03:36:11;100269.53;;;9.12;83.05
72096;BME280;59968;51.084;16.748;2024-02-28T03:38:40;100269.70;;;9.16;83.01
72096;BME280;59968;51.084;16.748;2024-02-28T03:41:12;100272.39;;;9.21;82.82
72096;BME280;59968;51.084;16.748;2024-02-28T03:43:40;100265.35;;;9.18;82.87
72096;BME280;59968;51.084;16.748;2024-02-28T03:46:08;100279.03;;;9.27;82.67
72096;BME280;59968;51.084;16.748;2024-02-28T03:48:37;100282.86;;;9.33;82.44
72096;BME280;59968;51.084;16.748;2024-02-28T03:51:06;100284.69;;;9.33;82.30
72096;BME280;59968;51.084;16.748;2024-02-28T03:53:35;100284.96;;;9.37;82.34
72096;BME280;59968;51.084;16.748;2024-02-28T03:56:04;100285.13;;;9.37;82.25
72096;BME280;59968;51.084;16.748;2024-02-28T03:58:32;100284.83;;;9.38;82.14
72096;BME280;59968;51.084;16.748;2024-02-28T04:01:01;100287.67;;;9.39;82.05
72096;BME280;59968;51.084;16.748;2024-02-28T04:03:29;100287.66;;;9.29;82.25
72096;BME280;59968;51.084;16.748;2024-02-28T04:05:58;100290.30;;;9.26;82.25
72096;BME280;59968;51.084;16.748;2024-02-28T04:08:27;100292.08;;;9.22;82.50
72096;BME280;59968;51.084;16.748;2024-02-28T04:10:55;100294.75;;;9.26;82.57
72096;BME280;59968;51.084;16.748;2024-02-28T04:13:24;100301.70;;;9.30;82.55
72096;BME280;59968;51.084;16.748;2024-02-28T04:15:52;100302.73;;;9.33;82.45
72096;BME280;59968;51.084;16.748;2024-02-28T04:18:21;100297.84;;;9.31;82.06
72096;BME280;59968;51.084;16.748;2024-02-28T04:20:49;100312.99;;;9.36;81.81
72096;BME280;59968;51.084;16.748;2024-02-28T04:23:18;100311.00;;;9.33;81.91
72096;BME280;59968;51.084;16.748;2024-02-28T04:25:46;100310.17;;;9.31;81.97
72096;BME280;59968;51.084;16.748;2024-02-28T04:28:15;100309.70;;;9.34;81.53
72096;BME280;59968;51.084;16.748;2024-02-28T04:30:43;100316.36;;;9.27;81.47
72096;BME280;59968;51.084;16.748;2024-02-28T04:33:12;100319.80;;;9.24;81.56
72096;BME280;59968;51.084;16.748;2024-02-28T04:35:41;100318.78;;;9.18;81.70
72096;BME280;59968;51.084;16.748;2024-02-28T04:38:09;100320.60;;;9.14;81.93
72096;BME280;59968;51.084;16.748;2024-02-28T04:40:38;100321.84;;;9.05;82.19
72096;BME280;59968;51.084;16.748;2024-02-28T04:43:06;100322.16;;;9.04;82.20
72096;BME280;59968;51.084;16.748;2024-02-28T04:45:35;100322.95;;;9.02;82.37
72096;BME280;59968;51.084;16.748;2024-02-28T04:48:04;100330.79;;;8.99;82.50
72096;BME280;59968;51.084;16.748;2024-02-28T04:50:33;100331.05;;;8.98;82.56
72096;BME280;59968;51.084;16.748;2024-02-28T04:53:02;100331.02;;;8.91;82.86
72096;BME280;59968;51.084;16.748;2024-02-28T04:55:33;100332.72;;;8.85;83.26
72096;BME280;59968;51.084;16.748;2024-02-28T04:58:04;100335.09;;;8.81;83.69
72096;BME280;59968;51.084;16.748;2024-02-28T05:00:33;100332.54;;;8.79;83.77
72096;BME280;59968;51.084;16.748;2024-02-28T05:03:01;100334.28;;;8.83;83.52
72096;BME280;59968;51.084;16.748;2024-02-28T05:05:33;100331.67;;;8.89;83.28
72096;BME280;59968;51.084;16.748;2024-02-28T05:08:05;100333.74;;;8.82;83.59
72096;BME280;59968;51.084;16.748;2024-02-28T05:10:36;100335.02;;;8.83;83.69
72096;BME280;59968;51.084;16.748;2024-02-28T05:13:05;100335.02;;;8.81;83.64
72096;BME280;59968;51.084;16.748;2024-02-28T05:15:36;100338.13;;;8.74;84.01
72096;BME280;59968;51.084;16.748;2024-02-28T05:18:05;100343.22;;;8.74;84.14
72096;BME280;59968;51.084;16.748;2024-02-28T05:20:34;100350.88;;;8.78;84.18
72096;BME280;59968;51.084;16.748;2024-02-28T05:23:06;100353.44;;;8.79;84.10
72096;BME280;59968;51.084;16.748;2024-02-28T05:25:38;100356.27;;;8.77;84.13
72096;BME280;59968;51.084;16.748;2024-02-28T05:28:08;100358.12;;;8.75;84.25
72096;BME280;59968;51.084;16.748;2024-02-28T05:30:36;100358.38;;;8.72;84.40
72096;BME280;59968;51.084;16.748;2024-02-28T05:33:08;100358.23;;;8.73;84.64
72096;BME280;59968;51.084;16.748;2024-02-28T05:35:37;100359.73;;;8.72;84.62
72096;BME280;59968;51.084;16.748;2024-02-28T05:38:05;100361.25;;;8.72;84.72
72096;BME280;59968;51.084;16.748;2024-02-28T05:40:34;100364.77;;;8.71;84.74
72096;BME280;59968;51.084;16.748;2024-02-28T05:43:03;100362.81;;;8.71;84.78
72096;BME280;59968;51.084;16.748;2024-02-28T05:45:32;100364.48;;;8.73;84.80
72096;BME280;59968;51.084;16.748;2024-02-28T05:48:02;100363.85;;;8.70;84.81
72096;BME280;59968;51.084;16.748;2024-02-28T05:50:31;100366.34;;;8.70;84.92
72096;BME280;59968;51.084;16.748;2024-02-28T05:53:01;100371.35;;;8.68;84.97
72096;BME280;59968;51.084;16.748;2024-02-28T05:55:29;100370.79;;;8.64;85.16
72096;BME280;59968;51.084;16.748;2024-02-28T05:57:58;100373.11;;;8.65;85.32
72096;BME280;59968;51.084;16.748;2024-02-28T06:00:27;100377.30;;;8.74;84.99
72096;BME280;59968;51.084;16.748;2024-02-28T06:02:57;100380.69;;;8.74;84.91
72096;BME280;59968;51.084;16.748;2024-02-28T06:05:26;100382.90;;;8.73;85.04
72096;BME280;59968;51.084;16.748;2024-02-28T06:07:56;100385.56;;;8.75;85.06
72096;BME280;59968;51.084;16.748;2024-02-28T06:10:24;100386.51;;;8.74;85.02
72096;BME280;59968;51.084;16.748;2024-02-28T06:12:59;100391.11;;;8.76;84.99
72096;BME280;59968;51.084;16.748;2024-02-28T06:15:29;100394.19;;;8.75;85.12
72096;BME280;59968;51.084;16.748;2024-02-28T06:17:58;100394.40;;;8.75;85.26
72096;BME280;59968;51.084;16.748;2024-02-28T06:20:30;100396.73;;;8.77;85.28
72096;BME280;59968;51.084;16.748;2024-02-28T06:22:59;100398.23;;;8.76;85.42
72096;BME280;59968;51.084;16.748;2024-02-28T06:25:41;100396.91;;;8.73;85.64
72096;BME280;59968;51.084;16.748;2024-02-28T06:28:10;100400.64;;;8.73;85.72
72096;BME280;59968;51.084;16.748;2024-02-28T06:30:39;100400.26;;;8.78;85.44
72096;BME280;59968;51.084;16.748;2024-02-28T06:33:09;100402.92;;;8.71;85.71
72096;BME280;59968;51.084;16.748;2024-02-28T06:35:38;100406.19;;;8.76;85.78
72096;BME280;59968;51.084;16.748;2024-02-28T06:38:06;100407.22;;;8.76;85.64
72096;BME280;59968;51.084;16.748;2024-02-28T06:40:36;100408.25;;;8.76;85.82
72096;BME280;59968;51.084;16.748;2024-02-28T06:43:05;100409.29;;;8.79;85.80
72096;BME280;59968;51.084;16.748;2024-02-28T06:45:33;100412.77;;;8.81;85.94
72096;BME280;59968;51.084;16.748;2024-02-28T06:48:07;100419.38;;;8.85;85.86
72096;BME280;59968;51.084;16.748;2024-02-28T06:50:36;100420.88;;;8.89;85.85
72096;BME280;59968;51.084;16.748;2024-02-28T06:53:04;100423.88;;;8.90;85.80
72096;BME280;59968;51.084;16.748;2024-02-28T06:55:34;100424.29;;;8.91;85.86
72096;BME280;59968;51.084;16.748;2024-02-28T06:58:03;100425.41;;;8.91;85.99
72096;BME280;59968;51.084;16.748;2024-02-28T07:00:32;100429.92;;;8.97;85.94
72096;BME280;59968;51.084;16.748;2024-02-28T07:03:02;100433.08;;;8.95;85.89
72096;BME280;59968;51.084;16.748;2024-02-28T07:05:33;100437.20;;;8.92;86.06
72096;BME280;59968;51.084;16.748;2024-02-28T07:08:02;100437.70;;;8.89;86.29
72096;BME280;59968;51.084;16.748;2024-02-28T07:10:31;100443.25;;;8.92;86.15
72096;BME280;59968;51.084;16.748;2024-02-28T07:13:03;100442.13;;;8.87;86.40
72096;BME280;59968;51.084;16.748;2024-02-28T07:15:32;100446.73;;;8.83;86.59
72096;BME280;59968;51.084;16.748;2024-02-28T07:18:03;100449.11;;;8.86;86.55
72096;BME280;59968;51.084;16.748;2024-02-28T07:20:32;100449.31;;;8.90;86.25
72096;BME280;59968;51.084;16.748;2024-02-28T07:23:01;100450.98;;;8.83;86.49
72096;BME280;59968;51.084;16.748;2024-02-28T07:25:29;100451.05;;;8.78;86.57
72096;BME280;59968;51.084;16.748;2024-02-28T07:27:59;100454.71;;;8.78;86.80
72096;BME280;59968;51.084;16.748;2024-02-28T07:30:29;100458.90;;;8.76;86.79
72096;BME280;59968;51.084;16.748;2024-02-28T07:32:58;100457.39;;;8.79;86.95
72096;BME280;59968;51.084;16.748;2024-02-28T07:35:27;100459.82;;;8.81;86.93
72096;BME280;59968;51.084;16.748;2024-02-28T07:37:56;100466.02;;;8.81;86.75
72096;BME280;59968;51.084;16.748;2024-02-28T07:40:24;100463.96;;;8.81;86.91
72096;BME280;59968;51.084;16.748;2024-02-28T07:42:53;100468.80;;;8.78;86.87
72096;BME280;59968;51.084;16.748;2024-02-28T07:45:23;100471.88;;;8.79;86.86
72096;BME280;59968;51.084;16.748;2024-02-28T07:47:51;100473.11;;;8.78;87.01
72096;BME280;59968;51.084;16.748;2024-02-28T07:50:21;100475.11;;;8.79;86.98
72096;BME280;59968;51.084;16.748;2024-02-28T07:52:49;100478.84;;;8.76;86.92
72096;BME280;59968;51.084;16.748;2024-02-28T07:55:18;100480.54;;;8.75;87.02
72096;BME280;59968;51.084;16.748;2024-02-28T07:57:52;100479.73;;;8.75;86.93
72096;BME280;59968;51.084;16.748;2024-02-28T08:00:21;100484.39;;;8.75;86.94
72096;BME280;59968;51.084;16.748;2024-02-28T08:02:50;100486.67;;;8.76;86.84
72096;BME280;59968;51.084;16.748;2024-02-28T08:05:20;100487.70;;;8.73;86.81
72096;BME280;59968;51.084;16.748;2024-02-28T08:07:49;100489.05;;;8.73;86.85
72096;BME280;59968;51.084;16.748;2024-02-28T08:10:18;100490.77;;;8.70;86.78
72096;BME280;59968;51.084;16.748;2024-02-28T08:12:47;100496.94;;;8.69;86.74
72096;BME280;59968;51.084;16.748;2024-02-28T08:15:15;100498.00;;;8.69;86.55
72096;BME280;59968;51.084;16.748;2024-02-28T08:17:45;100497.14;;;8.67;86.35
72096;BME280;59968;51.084;16.748;2024-02-28T08:20:14;100504.14;;;8.57;86.83
72096;BME280;59968;51.084;16.748;2024-02-28T08:22:46;100505.77;;;8.52;87.07
72096;BME280;59968;51.084;16.748;2024-02-28T08:25:16;100506.67;;;8.52;87.33
72096;BME280;59968;51.084;16.748;2024-02-28T08:27:45;100509.23;;;8.50;87.40
72096;BME280;59968;51.084;16.748;2024-02-28T08:30:15;100510.52;;;8.48;87.50
72096;BME280;59968;51.084;16.748;2024-02-28T08:32:44;100511.59;;;8.49;87.43
72096;BME280;59968;51.084;16.748;2024-02-28T08:35:13;100515.14;;;8.45;87.49
72096;BME280;59968;51.084;16.748;2024-02-28T08:37:42;100519.58;;;8.42;87.61
72096;BME280;59968;51.084;16.748;2024-02-28T08:40:11;100516.33;;;8.40;87.59
72096;BME280;59968;51.084;16.748;2024-02-28T08:42:41;100519.28;;;8.43;87.53
72096;BME280;59968;51.084;16.748;2024-02-28T08:45:10;100512.29;;;8.50;87.00
72096;BME280;59968;51.084;16.748;2024-02-28T08:47:40;100514.81;;;8.50;86.97
72096;BME280;59968;51.084;16.748;2024-02-28T08:50:10;100521.05;;;8.53;86.89
72096;BME280;59968;51.084;16.748;2024-02-28T08:52:39;100524.64;;;8.51;86.73
72096;BME280;59968;51.084;16.748;2024-02-28T08:55:08;100528.82;;;8.49;86.88
72096;BME280;59968;51.084;16.748;2024-02-28T08:57:37;100531.45;;;8.50;86.83
72096;BME280;59968;51.084;16.748;2024-02-28T09:00:07;100533.52;;;8.48;86.45
72096;BME280;59968;51.084;16.748;2024-02-28T09:02:37;100533.45;;;8.49;86.46
72096;BME280;59968;51.084;16.748;2024-02-28T09:05:09;100538.59;;;8.55;86.12
72096;BME280;59968;51.084;16.748;2024-02-28T09:07:37;100544.14;;;8.54;86.00
72096;BME280;59968;51.084;16.748;2024-02-28T09:10:07;100546.98;;;8.52;85.92
72096;BME280;59968;51.084;16.748;2024-02-28T09:12:39;100548.16;;;8.49;85.81
72096;BME280;59968;51.084;16.748;2024-02-28T09:15:08;100545.75;;;8.49;85.73
72096;BME280;59968;51.084;16.748;2024-02-28T09:17:37;100546.73;;;8.46;85.58
72096;BME280;59968;51.084;16.748;2024-02-28T09:20:06;100547.19;;;8.45;85.66
72096;BME280;59968;51.084;16.748;2024-02-28T09:22:37;100551.28;;;8.41;85.55
72096;BME280;59968;51.084;16.748;2024-02-28T09:25:07;100557.20;;;8.37;85.42
72096;BME280;59968;51.084;16.748;2024-02-28T09:27:44;100559.08;;;8.31;85.64
72096;BME280;59968;51.084;16.748;2024-02-28T09:30:13;100562.05;;;8.26;85.80
72096;BME280;59968;51.084;16.748;2024-02-28T09:32:43;100563.88;;;8.25;85.71
72096;BME280;59968;51.084;16.748;2024-02-28T09:35:12;100559.40;;;8.23;85.80
72096;BME280;59968;51.084;16.748;2024-02-28T09:37:41;100561.93;;;8.22;85.74
72096;BME280;59968;51.084;16.748;2024-02-28T09:40:11;100562.80;;;8.20;85.78
72096;BME280;59968;51.084;16.748;2024-02-28T09:42:40;100564.31;;;8.21;85.96
72096;BME280;59968;51.084;16.748;2024-02-28T09:45:12;100550.73;;;8.10;85.98
72096;BME280;59968;51.084;16.748;2024-02-28T09:47:44;100567.97;;;8.19;85.97
72096;BME280;59968;51.084;16.748;2024-02-28T09:50:13;100571.53;;;8.20;86.13
72096;BME280;59968;51.084;16.748;2024-02-28T09:52:43;100575.95;;;8.18;86.37
72096;BME280;59968;51.084;16.748;2024-02-28T09:55:19;100571.92;;;8.24;86.06
72096;BME280;59968;51.084;16.748;2024-02-28T09:57:50;100559.41;;;8.17;86.33
72096;BME280;59968;51.084;16.748;2024-02-28T10:00:20;100573.90;;;8.21;86.67
72096;BME280;59968;51.084;16.748;2024-02-28T10:02:49;100576.44;;;8.27;86.56
72096;BME280;59968;51.084;16.748;2024-02-28T10:05:19;100583.17;;;8.30;86.27
72096;BME280;59968;51.084;16.748;2024-02-28T10:07:49;100589.80;;;8.29;86.26
72096;BME280;59968;51.084;16.748;2024-02-28T10:10:18;100596.69;;;8.27;85.60
72096;BME280;59968;51.084;16.748;2024-02-28T10:12:47;100601.62;;;8.21;85.51
72096;BME280;59968;51.084;16.748;2024-02-28T10:15:16;100593.79;;;8.05;85.78
72096;BME280;59968;51.084;16.748;2024-02-28T10:17:48;100605.06;;;8.15;85.71
72096;BME280;59968;51.084;16.748;2024-02-28T10:20:17;100605.55;;;8.11;85.60
72096;BME280;59968;51.084;16.748;2024-02-28T10:22:46;100605.73;;;8.08;85.82
72096;BME280;59968;51.084;16.748;2024-02-28T10:25:15;100608.42;;;8.10;86.49
72096;BME280;59968;51.084;16.748;2024-02-28T10:27:46;100609.42;;;8.13;85.77
72096;BME280;59968;51.084;16.748;2024-02-28T10:30:16;100612.85;;;8.12;85.38
72096;BME280;59968;51.084;16.748;2024-02-28T10:32:49;100613.15;;;8.11;85.52
72096;BME280;59968;51.084;16.748;2024-02-28T10:35:21;100616.92;;;8.09;85.33
72096;BME280;59968;51.084;16.748;2024-02-28T10:37:54;100613.14;;;8.05;85.51
72096;BME280;59968;51.084;16.748;2024-02-28T10:40:25;100616.48;;;7.99;85.62
72096;BME280;59968;51.084;16.748;2024-02-28T10:42:55;100613.38;;;7.93;86.40
72096;BME280;59968;51.084;16.748;2024-02-28T10:45:29;100614.56;;;8.03;86.04
72096;BME280;59968;51.084;16.748;2024-02-28T10:48:19;100615.15;;;8.02;86.14
72096;BME280;59968;51.084;16.748;2024-02-28T10:50:50;100615.90;;;7.94;86.79
72096;BME280;59968;51.084;16.748;2024-02-28T10:53:22;100623.13;;;7.95;86.74
72096;BME280;59968;51.084;16.748;2024-02-28T10:55:55;100629.14;;;7.95;86.74
72096;BME280;59968;51.084;16.748;2024-02-28T10:58:36;100635.30;;;7.97;86.59
72096;BME280;59968;51.084;16.748;2024-02-28T11:01:06;100641.46;;;7.96;86.64
72096;BME280;59968;51.084;16.748;2024-02-28T11:03:36;100638.95;;;7.98;86.50
72096;BME280;59968;51.084;16.748;2024-02-28T11:06:19;100637.67;;;8.06;86.31
72096;BME280;59968;51.084;16.748;2024-02-28T11:09:00;100635.39;;;7.98;86.50
72096;BME280;59968;51.084;16.748;2024-02-28T11:11:30;100635.96;;;7.99;86.53
72096;BME280;59968;51.084;16.748;2024-02-28T11:14:01;100634.59;;;7.96;86.79
72096;BME280;59968;51.084;16.748;2024-02-28T11:16:32;100634.77;;;8.02;86.74
72096;BME280;59968;51.084;16.748;2024-02-28T11:19:02;100634.74;;;7.96;86.95
72096;BME280;59968;51.084;16.748;2024-02-28T11:21:34;100627.31;;;7.96;87.04
72096;BME280;59968;51.084;16.748;2024-02-28T11:24:05;100630.66;;;8.05;86.78
72096;BME280;59968;51.084;16.748;2024-02-28T11:26:34;100630.16;;;8.11;86.55
72096;BME280;59968;51.084;16.748;2024-02-28T11:29:02;100631.86;;;8.05;87.04
72096;BME280;59968;51.084;16.748;2024-02-28T11:31:32;100638.65;;;8.15;87.20
72096;BME280;59968;51.084;16.748;2024-02-28T11:34:01;100642.42;;;8.25;86.58
72096;BME280;59968;51.084;16.748;2024-02-28T11:36:29;100645.06;;;8.28;86.38
72096;BME280;59968;51.084;16.748;2024-02-28T11:38:58;100647.40;;;8.32;85.82
72096;BME280;59968;51.084;16.748;2024-02-28T11:41:29;100648.55;;;8.26;85.68
72096;BME280;59968;51.084;16.748;2024-02-28T11:43:58;100647.89;;;8.27;85.64
72096;BME280;59968;51.084;16.748;2024-02-28T11:46:27;100655.21;;;8.25;85.40
72096;BME280;59968;51.084;16.748;2024-02-28T11:48:56;100656.23;;;8.20;85.20
72096;BME280;59968;51.084;16.748;2024-02-28T11:51:32;100660.81;;;8.08;85.87
72096;BME280;59968;51.084;16.748;2024-02-28T11:54:05;100665.91;;;8.07;86.07
72096;BME280;59968;51.084;16.748;2024-02-28T11:56:34;100666.64;;;8.05;85.95
72096;BME280;59968;51.084;16.748;2024-02-28T11:59:04;100670.77;;;8.02;85.80
72096;BME280;59968;51.084;16.748;2024-02-28T12:01:41;100670.45;;;8.00;85.65
72096;BME280;59968;51.084;16.748;2024-02-28T12:04:11;100671.27;;;7.98;85.48
72096;BME280;59968;51.084;16.748;2024-02-28T12:06:40;100676.02;;;7.92;85.40
72096;BME280;59968;51.084;16.748;2024-02-28T12:09:12;100674.59;;;7.91;85.41
72096;BME280;59968;51.084;16.748;2024-02-28T12:11:55;100678.10;;;7.90;85.78
72096;BME280;59968;51.084;16.748;2024-02-28T12:14:24;100680.63;;;7.90;85.79
72096;BME280;59968;51.084;16.748;2024-02-28T12:17:00;100679.42;;;7.93;85.48
72096;BME280;59968;51.084;16.748;2024-02-28T12:19:29;100674.63;;;7.92;85.56
72096;BME280;59968;51.084;16.748;2024-02-28T12:21:58;100673.23;;;7.92;85.74
72096;BME280;59968;51.084;16.748;2024-02-28T12:24:28;100674.52;;;7.88;85.99
72096;BME280;59968;51.084;16.748;2024-02-28T12:27:00;100674.56;;;7.96;85.76
72096;BME280;59968;51.084;16.748;2024-02-28T12:29:29;100678.69;;;7.89;85.60
72096;BME280;59968;51.084;16.748;2024-02-28T12:31:58;100677.08;;;7.78;86.08
72096;BME280;59968;51.084;16.748;2024-02-28T12:34:27;100678.66;;;7.75;86.32
72096;BME280;59968;51.084;16.748;2024-02-28T12:36:56;100676.81;;;7.73;86.53
72096;BME280;59968;51.084;16.748;2024-02-28T12:39:26;100682.52;;;7.69;86.41
72096;BME280;59968;51.084;16.748;2024-02-28T12:41:55;100685.20;;;7.65;86.48
72096;BME280;59968;51.084;16.748;2024-02-28T12:44:30;100689.63;;;7.61;86.34
72096;BME280;59968;51.084;16.748;2024-02-28T12:46:59;100693.46;;;7.57;86.49
72096;BME280;59968;51.084;16.748;2024-02-28T12:49:30;100692.08;;;7.57;86.53
72096;BME280;59968;51.084;16.748;2024-02-28T12:51:59;100693.98;;;7.57;86.67
72096;BME280;59968;51.084;16.748;2024-02-28T12:54:31;100698.48;;;7.53;86.70
72096;BME280;59968;51.084;16.748;2024-02-28T12:56:59;100700.90;;;7.50;86.77
72096;BME280;59968;51.084;16.748;2024-02-28T12:59:32;100699.73;;;7.50;86.78
72096;BME280;59968;51.084;16.748;2024-02-28T13:02:06;100703.66;;;7.47;86.79
72096;BME280;59968;51.084;16.748;2024-02-28T13:04:35;100702.89;;;7.47;86.97